sensor_id;sensor_type;location;lat;lon;timestamp;pressure;altitude;pressure_sealevel;temperature;humidity
49627;BME280;35527;54.616;39.786;2023-08-24T00:00:56;99335.00;;;13.95;100.00
49627;BME280;35527;54.616;39.786;2023-08-24T00:04:02;99354.91;;;14.11;100.00
49627;BME280;35527;54.616;39.786;2023-08-24T00:07:06;99325.91;;;14.03;100.00
49627;BME280;35527;54.616;39.786;2023-08-24T00:10:10;99334.44;;;14.05;100.00
49627;BME280;35527;54.616;39.786;2023-08-24T00:13:15;99345.50;;;14.08;100.00
49627;BME280;35527;54.616;39.786;2023-08-24T00:16:21;99344.66;;;14.08;100.00
49627;BME280;35527;54.616;39.786;2023-08-24T00:19:24;99344.00;;;14.04;100.00
49627;BME280;35527;54.616;39.786;2023-08-24T00:22:30;99342.63;;;13.98;100.00
49627;BME280;35527;54.616;39.786;2023-08-24T00:25:34;99339.56;;;14.06;100.00
49627;BME280;35527;54.616;39.786;2023-08-24T00:28:45;99323.13;;;13.91;100.00
49627;BME280;35527;54.616;39.786;2023-08-24T00:31:48;99352.09;;;14.14;100.00
49627;BME280;35527;54.616;39.786;2023-08-24T00:34:52;99342.03;;;14.08;100.00
49627;BME280;35527;54.616;39.786;2023-08-24T00:37:55;99353.38;;;14.21;100.00
49627;BME280;35527;54.616;39.786;2023-08-24T00:41:02;99341.13;;;14.09;100.00
49627;BME280;35527;54.616;39.786;2023-08-24T00:44:04;99359.06;;;14.13;100.00
49627;BME280;35527;54.616;39.786;2023-08-24T00:47:12;99353.31;;;14.08;100.00
49627;BME280;35527;54.616;39.786;2023-08-24T00:50:16;99357.38;;;14.12;100.00
49627;BME280;35527;54.616;39.786;2023-08-24T00:53:21;99364.56;;;14.09;100.00
49627;BME280;35527;54.616;39.786;2023-08-24T00:56:27;99338.63;;;13.93;100.00
49627;BME280;35527;54.616;39.786;2023-08-24T00:59:34;99355.63;;;13.98;100.00
49627;BME280;35527;54.616;39.786;2023-08-24T01:02:39;99350.91;;;13.91;100.00
49627;BME280;35527;54.616;39.786;2023-08-24T01:05:45;99352.94;;;13.86;100.00
49627;BME280;35527;54.616;39.786;2023-08-24T01:08:48;99353.00;;;13.84;100.00
49627;BME280;35527;54.616;39.786;2023-08-24T01:16:03;99364.09;;;13.88;100.00
49627;BME280;35527;54.616;39.786;2023-08-24T01:18:39;99364.75;;;13.91;100.00
49627;BME280;35527;54.616;39.786;2023-08-24T01:21:45;99370.03;;;13.90;100.00
49627;BME280;35527;54.616;39.786;2023-08-24T01:25:15;99380.06;;;13.96;100.00
49627;BME280;35527;54.616;39.786;2023-08-24T01:28:20;99375.41;;;13.87;100.00
49627;BME280;35527;54.616;39.786;2023-08-24T01:31:24;99388.81;;;13.95;100.00
49627;BME280;35527;54.616;39.786;2023-08-24T01:34:27;99386.47;;;13.90;100.00
49627;BME280;35527;54.616;39.786;2023-08-24T01:37:33;99389.75;;;13.94;100.00
49627;BME280;35527;54.616;39.786;2023-08-24T01:40:53;99394.19;;;13.92;100.00
49627;BME280;35527;54.616;39.786;2023-08-24T01:44:03;99386.84;;;13.84;100.00
49627;BME280;35527;54.616;39.786;2023-08-24T01:47:10;99389.34;;;13.86;100.00
49627;BME280;35527;54.616;39.786;2023-08-24T01:50:16;99397.16;;;13.86;100.00
49627;BME280;35527;54.616;39.786;2023-08-24T01:53:19;99407.56;;;13.86;100.00
49627;BME280;35527;54.616;39.786;2023-08-24T01:56:26;99408.78;;;13.94;100.00
49627;BME280;35527;54.616;39.786;2023-08-24T01:59:29;99398.94;;;13.85;100.00
49627;BME280;35527;54.616;39.786;2023-08-24T02:02:34;99398.19;;;13.83;100.00
49627;BME280;35527;54.616;39.786;2023-08-24T02:05:37;99414.91;;;13.93;100.00
49627;BME280;35527;54.616;39.786;2023-08-24T02:08:41;99416.00;;;13.89;100.00
49627;BME280;35527;54.616;39.786;2023-08-24T02:11:44;99410.16;;;13.86;100.00
49627;BME280;35527;54.616;39.786;2023-08-24T02:14:47;99408.97;;;13.91;100.00
49627;BME280;35527;54.616;39.786;2023-08-24T02:17:50;99408.31;;;13.88;100.00
49627;BME280;35527;54.616;39.786;2023-08-24T02:20:54;99405.72;;;13.88;100.00
49627;BME280;35527;54.616;39.786;2023-08-24T02:23:57;99399.94;;;13.83;100.00
49627;BME280;35527;54.616;39.786;2023-08-24T02:27:00;99420.78;;;13.97;100.00
49627;BME280;35527;54.616;39.786;2023-08-24T02:30:05;99423.44;;;13.95;100.00
49627;BME280;35527;54.616;39.786;2023-08-24T02:33:10;99415.66;;;13.95;100.00
49627;BME280;35527;54.616;39.786;2023-08-24T02:36:12;99404.31;;;13.82;100.00
49627;BME280;35527;54.616;39.786;2023-08-24T02:39:17;99415.84;;;13.92;100.00
49627;BME280;35527;54.616;39.786;2023-08-24T02:42:23;99429.66;;;13.93;100.00
49627;BME280;35527;54.616;39.786;2023-08-24T02:45:26;99411.94;;;13.85;100.00
49627;BME280;35527;54.616;39.786;2023-08-24T02:48:30;99417.69;;;13.90;100.00
49627;BME280;35527;54.616;39.786;2023-08-24T02:51:32;99426.69;;;13.99;100.00
49627;BME280;35527;54.616;39.786;2023-08-24T02:54:37;99423.75;;;14.05;100.00
49627;BME280;35527;54.616;39.786;2023-08-24T02:57:43;99407.59;;;14.00;100.00
49627;BME280;35527;54.616;39.786;2023-08-24T03:00:46;99410.47;;;14.10;100.00
49627;BME280;35527;54.616;39.786;2023-08-24T03:03:49;99423.41;;;14.26;100.00
49627;BME280;35527;54.616;39.786;2023-08-24T03:06:54;99430.06;;;14.44;100.00
49627;BME280;35527;54.616;39.786;2023-08-24T03:09:58;99429.25;;;14.43;100.00
49627;BME280;35527;54.616;39.786;2023-08-24T03:13:03;99423.00;;;14.46;100.00
49627;BME280;35527;54.616;39.786;2023-08-24T03:16:08;99430.63;;;14.49;100.00
49627;BME280;35527;54.616;39.786;2023-08-24T03:19:13;99422.19;;;14.46;100.00
49627;BME280;35527;54.616;39.786;2023-08-24T03:22:17;99435.22;;;14.60;100.00
49627;BME280;35527;54.616;39.786;2023-08-24T03:25:20;99442.66;;;14.52;100.00
49627;BME280;35527;54.616;39.786;2023-08-24T03:28:27;99443.94;;;14.45;100.00
49627;BME280;35527;54.616;39.786;2023-08-24T03:31:30;99437.81;;;14.46;100.00
49627;BME280;35527;54.616;39.786;2023-08-24T03:34:35;99448.72;;;14.52;100.00
49627;BME280;35527;54.616;39.786;2023-08-24T03:37:39;99445.25;;;14.37;100.00
49627;BME280;35527;54.616;39.786;2023-08-24T03:40:47;99443.84;;;14.32;100.00
49627;BME280;35527;54.616;39.786;2023-08-24T03:43:52;99440.03;;;14.37;100.00
49627;BME280;35527;54.616;39.786;2023-08-24T03:46:56;99466.72;;;14.41;100.00
49627;BME280;35527;54.616;39.786;2023-08-24T03:49:59;99449.06;;;14.32;100.00
49627;BME280;35527;54.616;39.786;2023-08-24T03:53:03;99450.16;;;14.42;100.00
49627;BME280;35527;54.616;39.786;2023-08-24T03:56:09;99452.69;;;14.43;100.00
49627;BME280;35527;54.616;39.786;2023-08-24T03:59:13;99449.88;;;14.47;100.00
49627;BME280;35527;54.616;39.786;2023-08-24T04:02:16;99431.00;;;14.43;100.00
49627;BME280;35527;54.616;39.786;2023-08-24T04:05:20;99443.59;;;14.65;100.00
49627;BME280;35527;54.616;39.786;2023-08-24T04:08:24;99448.94;;;14.76;100.00
49627;BME280;35527;54.616;39.786;2023-08-24T04:11:32;99447.00;;;14.80;100.00
49627;BME280;35527;54.616;39.786;2023-08-24T04:14:35;99449.06;;;14.75;100.00
49627;BME280;35527;54.616;39.786;2023-08-24T04:17:38;99449.06;;;14.75;100.00
49627;BME280;35527;54.616;39.786;2023-08-24T04:20:43;99457.97;;;14.71;100.00
49627;BME280;35527;54.616;39.786;2023-08-24T04:23:47;99449.50;;;14.81;100.00
49627;BME280;35527;54.616;39.786;2023-08-24T04:26:51;99436.38;;;14.97;100.00
49627;BME280;35527;54.616;39.786;2023-08-24T04:29:54;99453.81;;;15.09;100.00
49627;BME280;35527;54.616;39.786;2023-08-24T04:32:58;99451.03;;;15.13;100.00
49627;BME280;35527;54.616;39.786;2023-08-24T04:36:06;99451.44;;;15.19;100.00
49627;BME280;35527;54.616;39.786;2023-08-24T04:39:09;99438.38;;;15.06;100.00
49627;BME280;35527;54.616;39.786;2023-08-24T04:42:13;99448.41;;;15.13;100.00
49627;BME280;35527;54.616;39.786;2023-08-24T04:45:17;99450.34;;;15.23;100.00
49627;BME280;35527;54.616;39.786;2023-08-24T04:48:23;99451.66;;;15.43;100.00
49627;BME280;35527;54.616;39.786;2023-08-24T04:51:26;99455.53;;;15.50;100.00
49627;BME280;35527;54.616;39.786;2023-08-24T04:54:35;99456.34;;;15.38;100.00
49627;BME280;35527;54.616;39.786;2023-08-24T04:57:41;99451.41;;;15.33;100.00
49627;BME280;35527;54.616;39.786;2023-08-24T05:00:45;99466.34;;;15.31;100.00
49627;BME280;35527;54.616;39.786;2023-08-24T05:03:51;99440.84;;;15.22;100.00
49627;BME280;35527;54.616;39.786;2023-08-24T05:06:58;99448.22;;;15.43;100.00
49627;BME280;35527;54.616;39.786;2023-08-24T05:10:03;99453.94;;;15.48;100.00
49627;BME280;35527;54.616;39.786;2023-08-24T05:13:06;99433.00;;;15.49;100.00
49627;BME280;35527;54.616;39.786;2023-08-24T05:16:09;99445.84;;;15.80;100.00
49627;BME280;35527;54.616;39.786;2023-08-24T05:19:14;99442.63;;;15.89;100.00
49627;BME280;35527;54.616;39.786;2023-08-24T05:22:17;99432.88;;;15.91;100.00
49627;BME280;35527;54.616;39.786;2023-08-24T05:25:25;99462.06;;;16.23;100.00
49627;BME280;35527;54.616;39.786;2023-08-24T05:28:28;99429.69;;;16.00;100.00
49627;BME280;35527;54.616;39.786;2023-08-24T05:31:31;99446.56;;;16.07;100.00
49627;BME280;35527;54.616;39.786;2023-08-24T05:34:35;99436.97;;;15.95;100.00
49627;BME280;35527;54.616;39.786;2023-08-24T05:37:39;99443.97;;;15.94;100.00
49627;BME280;35527;54.616;39.786;2023-08-24T05:40:43;99425.41;;;16.12;100.00
49627;BME280;35527;54.616;39.786;2023-08-24T05:43:46;99442.91;;;16.48;100.00
49627;BME280;35527;54.616;39.786;2023-08-24T05:46:49;99431.47;;;16.75;100.00
49627;BME280;35527;54.616;39.786;2023-08-24T05:49:52;99438.72;;;17.08;100.00
49627;BME280;35527;54.616;39.786;2023-08-24T05:52:54;99444.13;;;17.18;100.00
49627;BME280;35527;54.616;39.786;2023-08-24T05:56:03;99444.50;;;17.00;100.00
49627;BME280;35527;54.616;39.786;2023-08-24T05:59:06;99441.44;;;17.30;100.00
49627;BME280;35527;54.616;39.786;2023-08-24T06:02:11;99432.97;;;17.51;100.00
49627;BME280;35527;54.616;39.786;2023-08-24T06:05:14;99439.31;;;17.71;100.00
49627;BME280;35527;54.616;39.786;2023-08-24T06:08:22;99418.88;;;17.76;100.00
49627;BME280;35527;54.616;39.786;2023-08-24T06:11:24;99440.16;;;18.07;100.00
49627;BME280;35527;54.616;39.786;2023-08-24T06:14:52;99424.91;;;18.90;100.00
49627;BME280;35527;54.616;39.786;2023-08-24T06:17:55;99439.97;;;19.85;97.77
49627;BME280;35527;54.616;39.786;2023-08-24T06:20:59;99426.75;;;20.17;92.45
49627;BME280;35527;54.616;39.786;2023-08-24T06:24:01;99432.44;;;19.92;89.26
49627;BME280;35527;54.616;39.786;2023-08-24T06:27:05;99451.44;;;19.84;90.36
49627;BME280;35527;54.616;39.786;2023-08-24T06:30:07;99438.78;;;20.20;86.47
49627;BME280;35527;54.616;39.786;2023-08-24T06:33:10;99458.97;;;20.40;86.78
49627;BME280;35527;54.616;39.786;2023-08-24T06:36:13;99458.28;;;20.69;83.87
49627;BME280;35527;54.616;39.786;2023-08-24T06:39:16;99443.53;;;20.26;84.72
49627;BME280;35527;54.616;39.786;2023-08-24T06:42:19;99459.69;;;19.47;89.45
49627;BME280;35527;54.616;39.786;2023-08-24T06:45:23;99462.56;;;19.12;94.17
49627;BME280;35527;54.616;39.786;2023-08-24T06:48:25;99459.13;;;19.00;95.54
49627;BME280;35527;54.616;39.786;2023-08-24T06:51:30;99454.97;;;18.64;96.97
49627;BME280;35527;54.616;39.786;2023-08-24T06:54:33;99457.59;;;18.53;99.04
49627;BME280;35527;54.616;39.786;2023-08-24T06:57:36;99478.78;;;18.27;100.00
49627;BME280;35527;54.616;39.786;2023-08-24T07:00:38;99479.56;;;18.05;100.00
49627;BME280;35527;54.616;39.786;2023-08-24T07:03:43;99455.00;;;17.60;100.00
49627;BME280;35527;54.616;39.786;2023-08-24T07:06:47;99476.59;;;17.50;100.00
49627;BME280;35527;54.616;39.786;2023-08-24T07:09:51;99493.66;;;17.56;100.00
49627;BME280;35527;54.616;39.786;2023-08-24T07:12:58;99481.97;;;17.49;100.00
49627;BME280;35527;54.616;39.786;2023-08-24T07:16:04;99484.91;;;17.44;100.00
49627;BME280;35527;54.616;39.786;2023-08-24T07:19:10;99462.66;;;17.15;100.00
49627;BME280;35527;54.616;39.786;2023-08-24T07:22:14;99469.84;;;17.11;100.00
49627;BME280;35527;54.616;39.786;2023-08-24T07:25:16;99473.25;;;17.00;100.00
49627;BME280;35527;54.616;39.786;2023-08-24T07:28:21;99489.31;;;17.20;100.00
49627;BME280;35527;54.616;39.786;2023-08-24T07:31:26;99479.31;;;17.38;100.00
49627;BME280;35527;54.616;39.786;2023-08-24T07:34:30;99484.84;;;17.33;100.00
49627;BME280;35527;54.616;39.786;2023-08-24T07:37:32;99495.88;;;17.49;100.00
49627;BME280;35527;54.616;39.786;2023-08-24T07:40:36;99498.94;;;17.67;100.00
49627;BME280;35527;54.616;39.786;2023-08-24T07:43:40;99484.19;;;17.66;100.00
49627;BME280;35527;54.616;39.786;2023-08-24T07:46:47;99494.03;;;17.87;100.00
49627;BME280;35527;54.616;39.786;2023-08-24T07:49:51;99478.34;;;17.87;100.00
49627;BME280;35527;54.616;39.786;2023-08-24T07:52:54;99491.88;;;18.27;100.00
49627;BME280;35527;54.616;39.786;2023-08-24T07:56:02;99488.44;;;18.72;99.51
49627;BME280;35527;54.616;39.786;2023-08-24T07:59:06;99491.59;;;19.31;95.37
49627;BME280;35527;54.616;39.786;2023-08-24T08:02:10;99491.88;;;19.93;89.97
49627;BME280;35527;54.616;39.786;2023-08-24T08:05:14;99483.00;;;20.36;86.22
49627;BME280;35527;54.616;39.786;2023-08-24T08:08:17;99495.69;;;20.82;81.67
49627;BME280;35527;54.616;39.786;2023-08-24T08:11:20;99494.84;;;20.82;81.62
49627;BME280;35527;54.616;39.786;2023-08-24T08:14:23;99494.16;;;20.80;80.68
49627;BME280;35527;54.616;39.786;2023-08-24T08:17:32;99476.50;;;20.09;83.24
49627;BME280;35527;54.616;39.786;2023-08-24T08:20:39;99477.97;;;19.81;89.64
49627;BME280;35527;54.616;39.786;2023-08-24T08:23:44;99474.19;;;19.63;90.08
49627;BME280;35527;54.616;39.786;2023-08-24T08:26:47;99493.53;;;19.18;90.50
49627;BME280;35527;54.616;39.786;2023-08-24T08:29:50;99490.13;;;18.84;93.41
49627;BME280;35527;54.616;39.786;2023-08-24T08:32:54;99481.50;;;18.48;94.70
49627;BME280;35527;54.616;39.786;2023-08-24T08:35:59;99481.38;;;18.27;95.23
49627;BME280;35527;54.616;39.786;2023-08-24T08:39:02;99490.66;;;18.09;98.87
49627;BME280;35527;54.616;39.786;2023-08-24T08:42:14;99487.75;;;17.89;100.00
49627;BME280;35527;54.616;39.786;2023-08-24T08:45:18;99489.31;;;17.92;100.00
49627;BME280;35527;54.616;39.786;2023-08-24T08:48:30;99491.09;;;17.91;100.00
49627;BME280;35527;54.616;39.786;2023-08-24T08:51:36;99489.66;;;17.98;100.00
49627;BME280;35527;54.616;39.786;2023-08-24T08:54:42;99463.59;;;17.97;100.00
49627;BME280;35527;54.616;39.786;2023-08-24T08:57:48;99484.03;;;17.81;100.00
49627;BME280;35527;54.616;39.786;2023-08-24T09:00:52;99501.44;;;17.69;100.00
49627;BME280;35527;54.616;39.786;2023-08-24T09:03:56;99498.66;;;17.59;100.00
49627;BME280;35527;54.616;39.786;2023-08-24T09:07:00;99505.22;;;17.65;100.00
49627;BME280;35527;54.616;39.786;2023-08-24T09:10:10;99502.31;;;17.56;100.00
49627;BME280;35527;54.616;39.786;2023-08-24T09:13:14;99502.06;;;17.48;100.00
49627;BME280;35527;54.616;39.786;2023-08-24T09:16:17;99522.00;;;17.25;100.00
49627;BME280;35527;54.616;39.786;2023-08-24T09:19:28;99518.41;;;17.02;100.00
49627;BME280;35527;54.616;39.786;2023-08-24T09:22:35;99525.25;;;16.79;100.00
49627;BME280;35527;54.616;39.786;2023-08-24T09:25:45;99519.72;;;16.58;100.00
49627;BME280;35527;54.616;39.786;2023-08-24T09:28:49;99493.91;;;16.28;100.00
49627;BME280;35527;54.616;39.786;2023-08-24T09:31:52;99528.38;;;16.59;100.00
49627;BME280;35527;54.616;39.786;2023-08-24T09:34:56;99527.56;;;16.71;100.00
49627;BME280;35527;54.616;39.786;2023-08-24T09:37:59;99511.25;;;16.80;100.00
49627;BME280;35527;54.616;39.786;2023-08-24T09:41:04;99512.72;;;16.84;100.00
49627;BME280;35527;54.616;39.786;2023-08-24T09:44:17;99517.81;;;16.99;100.00
49627;BME280;35527;54.616;39.786;2023-08-24T09:47:20;99520.03;;;17.29;100.00
49627;BME280;35527;54.616;39.786;2023-08-24T09:50:23;99530.47;;;17.66;100.00
49627;BME280;35527;54.616;39.786;2023-08-24T09:53:28;99538.88;;;17.82;100.00
49627;BME280;35527;54.616;39.786;2023-08-24T09:56:38;99524.56;;;18.10;100.00
49627;BME280;35527;54.616;39.786;2023-08-24T09:59:46;99531.56;;;18.56;100.00
49627;BME280;35527;54.616;39.786;2023-08-24T10:02:53;99521.03;;;18.34;100.00
49627;BME280;35527;54.616;39.786;2023-08-24T10:05:58;99512.72;;;18.29;100.00
49627;BME280;35527;54.616;39.786;2023-08-24T10:09:08;99530.81;;;18.20;100.00
49627;BME280;35527;54.616;39.786;2023-08-24T10:12:32;99518.38;;;18.00;100.00
49627;BME280;35527;54.616;39.786;2023-08-24T10:15:39;99528.94;;;17.98;100.00
49627;BME280;35527;54.616;39.786;2023-08-24T10:18:49;99529.25;;;18.18;100.00
49627;BME280;35527;54.616;39.786;2023-08-24T10:21:59;99527.81;;;18.25;100.00
49627;BME280;35527;54.616;39.786;2023-08-24T10:25:06;99518.06;;;18.27;100.00
49627;BME280;35527;54.616;39.786;2023-08-24T10:28:11;99527.69;;;18.15;100.00
49627;BME280;35527;54.616;39.786;2023-08-24T10:31:17;99512.91;;;17.79;100.00
49627;BME280;35527;54.616;39.786;2023-08-24T10:34:20;99513.22;;;17.98;100.00
49627;BME280;35527;54.616;39.786;2023-08-24T10:37:27;99517.31;;;18.14;100.00
49627;BME280;35527;54.616;39.786;2023-08-24T10:40:35;99525.03;;;18.04;100.00
49627;BME280;35527;54.616;39.786;2023-08-24T10:43:38;99537.63;;;17.99;100.00
49627;BME280;35527;54.616;39.786;2023-08-24T10:46:42;99535.25;;;17.96;100.00
49627;BME280;35527;54.616;39.786;2023-08-24T10:52:58;99535.44;;;17.82;100.00
49627;BME280;35527;54.616;39.786;2023-08-24T10:56:15;99527.47;;;17.83;100.00
49627;BME280;35527;54.616;39.786;2023-08-24T10:59:21;99533.91;;;17.90;100.00
49627;BME280;35527;54.616;39.786;2023-08-24T11:02:25;99515.94;;;17.86;100.00
49627;BME280;35527;54.616;39.786;2023-08-24T11:05:29;99536.81;;;17.98;100.00
49627;BME280;35527;54.616;39.786;2023-08-24T11:08:47;99514.19;;;17.97;100.00
49627;BME280;35527;54.616;39.786;2023-08-24T11:11:59;99531.22;;;18.03;100.00
49627;BME280;35527;54.616;39.786;2023-08-24T11:15:02;99525.16;;;18.14;100.00
49627;BME280;35527;54.616;39.786;2023-08-24T11:18:13;99537.44;;;18.13;100.00
49627;BME280;35527;54.616;39.786;2023-08-24T11:21:20;99525.34;;;18.35;100.00
49627;BME280;35527;54.616;39.786;2023-08-24T11:24:26;99528.13;;;18.56;100.00
49627;BME280;35527;54.616;39.786;2023-08-24T11:27:30;99518.09;;;18.50;95.22
49627;BME280;35527;54.616;39.786;2023-08-24T11:30:35;99527.78;;;18.60;94.96
49627;BME280;35527;54.616;39.786;2023-08-24T11:33:39;99522.31;;;18.75;93.60
49627;BME280;35527;54.616;39.786;2023-08-24T11:36:46;99523.50;;;18.82;92.94
49627;BME280;35527;54.616;39.786;2023-08-24T11:39:49;99518.25;;;18.93;90.79
49627;BME280;35527;54.616;39.786;2023-08-24T11:42:57;99513.34;;;18.88;89.59
49627;BME280;35527;54.616;39.786;2023-08-24T11:46:00;99520.53;;;18.98;89.70
49627;BME280;35527;54.616;39.786;2023-08-24T11:49:06;99523.75;;;18.90;90.70
49627;BME280;35527;54.616;39.786;2023-08-24T11:52:09;99520.59;;;18.62;93.04
49627;BME280;35527;54.616;39.786;2023-08-24T11:55:13;99520.25;;;18.67;94.57
49627;BME280;35527;54.616;39.786;2023-08-24T11:58:16;99505.94;;;19.16;93.23
49627;BME280;35527;54.616;39.786;2023-08-24T12:01:22;99498.88;;;19.71;88.63
49627;BME280;35527;54.616;39.786;2023-08-24T12:04:25;99507.78;;;19.80;83.90
49627;BME280;35527;54.616;39.786;2023-08-24T12:07:33;99513.13;;;19.69;82.22
49627;BME280;35527;54.616;39.786;2023-08-24T12:10:44;99509.59;;;19.79;80.27
49627;BME280;35527;54.616;39.786;2023-08-24T12:13:55;99501.16;;;19.65;81.76
49627;BME280;35527;54.616;39.786;2023-08-24T12:16:58;99516.97;;;19.42;82.98
49627;BME280;35527;54.616;39.786;2023-08-24T12:20:17;99513.94;;;19.15;87.56
49627;BME280;35527;54.616;39.786;2023-08-24T12:23:20;99514.53;;;19.18;86.05
49627;BME280;35527;54.616;39.786;2023-08-24T12:26:33;99514.06;;;19.13;86.68
49627;BME280;35527;54.616;39.786;2023-08-24T12:29:44;99513.53;;;19.30;88.03
49627;BME280;35527;54.616;39.786;2023-08-24T12:32:48;99508.53;;;19.27;87.59
49627;BME280;35527;54.616;39.786;2023-08-24T12:35:54;99489.19;;;19.40;86.86
49627;BME280;35527;54.616;39.786;2023-08-24T12:38:58;99497.41;;;19.46;86.39
49627;BME280;35527;54.616;39.786;2023-08-24T12:42:03;99499.47;;;19.31;87.94
49627;BME280;35527;54.616;39.786;2023-08-24T12:45:10;99494.59;;;19.27;88.99
49627;BME280;35527;54.616;39.786;2023-08-24T12:48:13;99498.06;;;19.27;87.79
49627;BME280;35527;54.616;39.786;2023-08-24T12:51:18;99503.47;;;19.15;88.09
49627;BME280;35527;54.616;39.786;2023-08-24T12:54:21;99470.34;;;18.80;88.61
49627;BME280;35527;54.616;39.786;2023-08-24T12:57:24;99503.59;;;18.90;89.93
49627;BME280;35527;54.616;39.786;2023-08-24T13:00:27;99498.09;;;18.71;89.70
49627;BME280;35527;54.616;39.786;2023-08-24T13:03:33;99513.59;;;18.63;90.02
49627;BME280;35527;54.616;39.786;2023-08-24T13:06:36;99507.50;;;18.51;89.48
49627;BME280;35527;54.616;39.786;2023-08-24T13:09:40;99510.47;;;18.46;90.63
49627;BME280;35527;54.616;39.786;2023-08-24T13:12:43;99493.69;;;18.38;91.93
49627;BME280;35527;54.616;39.786;2023-08-24T13:15:50;99487.59;;;18.26;91.47
49627;BME280;35527;54.616;39.786;2023-08-24T13:18:54;99505.69;;;18.29;92.12
49627;BME280;35527;54.616;39.786;2023-08-24T13:21:57;99499.50;;;18.30;91.93
49627;BME280;35527;54.616;39.786;2023-08-24T13:25:00;99514.47;;;18.17;92.18
49627;BME280;35527;54.616;39.786;2023-08-24T13:28:07;99518.00;;;18.05;94.13
49627;BME280;35527;54.616;39.786;2023-08-24T13:31:09;99501.91;;;17.87;94.18
49627;BME280;35527;54.616;39.786;2023-08-24T13:34:13;99513.09;;;17.89;94.48
49627;BME280;35527;54.616;39.786;2023-08-24T13:37:17;99530.84;;;17.96;94.98
49627;BME280;35527;54.616;39.786;2023-08-24T13:40:24;99520.88;;;17.77;95.34
49627;BME280;35527;54.616;39.786;2023-08-24T13:43:28;99529.13;;;17.60;97.79
49627;BME280;35527;54.616;39.786;2023-08-24T13:46:31;99524.97;;;17.45;98.74
49627;BME280;35527;54.616;39.786;2023-08-24T13:49:34;99527.94;;;17.40;99.60
49627;BME280;35527;54.616;39.786;2023-08-24T13:52:44;99516.53;;;17.41;100.00
49627;BME280;35527;54.616;39.786;2023-08-24T13:55:46;99520.72;;;17.44;100.00
49627;BME280;35527;54.616;39.786;2023-08-24T13:58:49;99520.59;;;17.45;100.00
49627;BME280;35527;54.616;39.786;2023-08-24T14:01:52;99524.09;;;17.33;100.00
49627;BME280;35527;54.616;39.786;2023-08-24T14:04:59;99525.28;;;17.29;100.00
49627;BME280;35527;54.616;39.786;2023-08-24T14:08:03;99522.88;;;17.26;100.00
49627;BME280;35527;54.616;39.786;2023-08-24T14:11:06;99530.09;;;17.22;100.00
49627;BME280;35527;54.616;39.786;2023-08-24T14:14:09;99512.34;;;17.15;100.00
49627;BME280;35527;54.616;39.786;2023-08-24T14:17:17;99520.34;;;17.24;100.00
49627;BME280;35527;54.616;39.786;2023-08-24T14:20:19;99522.00;;;17.25;100.00
49627;BME280;35527;54.616;39.786;2023-08-24T14:23:24;99516.38;;;17.31;100.00
49627;BME280;35527;54.616;39.786;2023-08-24T14:26:26;99511.38;;;17.28;100.00
49627;BME280;35527;54.616;39.786;2023-08-24T14:29:34;99505.72;;;17.22;100.00
49627;BME280;35527;54.616;39.786;2023-08-24T14:32:37;99515.28;;;17.10;100.00
49627;BME280;35527;54.616;39.786;2023-08-24T14:35:40;99493.53;;;16.97;100.00
49627;BME280;35527;54.616;39.786;2023-08-24T14:38:43;99504.00;;;16.97;100.00
49627;BME280;35527;54.616;39.786;2023-08-24T14:41:49;99519.75;;;17.08;100.00
49627;BME280;35527;54.616;39.786;2023-08-24T14:44:55;99518.00;;;17.08;100.00
49627;BME280;35527;54.616;39.786;2023-08-24T14:47:58;99528.88;;;17.02;100.00
49627;BME280;35527;54.616;39.786;2023-08-24T14:51:02;99517.63;;;16.89;100.00
49627;BME280;35527;54.616;39.786;2023-08-24T14:54:13;99518.47;;;16.89;100.00
49627;BME280;35527;54.616;39.786;2023-08-24T14:57:18;99521.81;;;16.79;100.00
49627;BME280;35527;54.616;39.786;2023-08-24T15:00:22;99509.44;;;16.68;100.00
49627;BME280;35527;54.616;39.786;2023-08-24T15:03:25;99494.44;;;16.46;100.00
49627;BME280;35527;54.616;39.786;2023-08-24T15:06:33;99518.75;;;16.59;100.00
49627;BME280;35527;54.616;39.786;2023-08-24T15:09:37;99497.44;;;16.53;100.00
49627;BME280;35527;54.616;39.786;2023-08-24T15:12:41;99522.22;;;16.60;100.00
49627;BME280;35527;54.616;39.786;2023-08-24T15:15:44;99527.03;;;16.66;100.00
49627;BME280;35527;54.616;39.786;2023-08-24T15:18:51;99511.34;;;16.53;100.00
49627;BME280;35527;54.616;39.786;2023-08-24T15:21:53;99529.94;;;16.61;100.00
49627;BME280;35527;54.616;39.786;2023-08-24T15:24:58;99520.13;;;16.52;100.00
49627;BME280;35527;54.616;39.786;2023-08-24T15:28:00;99524.75;;;16.49;100.00
49627;BME280;35527;54.616;39.786;2023-08-24T15:31:05;99532.03;;;16.43;100.00
49627;BME280;35527;54.616;39.786;2023-08-24T15:34:08;99527.75;;;16.30;100.00
49627;BME280;35527;54.616;39.786;2023-08-24T15:37:12;99539.94;;;16.16;100.00
49627;BME280;35527;54.616;39.786;2023-08-24T15:40:16;99534.00;;;16.14;100.00
49627;BME280;35527;54.616;39.786;2023-08-24T15:43:20;99531.59;;;16.11;100.00
49627;BME280;35527;54.616;39.786;2023-08-24T15:46:23;99538.78;;;16.08;100.00
49627;BME280;35527;54.616;39.786;2023-08-24T15:49:27;99542.84;;;15.99;100.00
49627;BME280;35527;54.616;39.786;2023-08-24T15:52:30;99533.84;;;15.90;100.00
49627;BME280;35527;54.616;39.786;2023-08-24T15:55:34;99542.69;;;15.88;100.00
49627;BME280;35527;54.616;39.786;2023-08-24T15:58:37;99537.47;;;15.88;100.00
49627;BME280;35527;54.616;39.786;2023-08-24T16:01:40;99526.00;;;15.77;100.00
49627;BME280;35527;54.616;39.786;2023-08-24T16:04:43;99536.84;;;15.71;100.00